createdAt,value
2023-01-09T00:00:38.255Z,217.63
2023-01-09T00:01:38.715Z,217.06
2023-01-09T00:02:38.096Z,217.49
2023-01-09T00:03:38.087Z,216.91
2023-01-09T00:04:38.381Z,217.49
2023-01-09T00:05:38.044Z,216.91
2023-01-09T00:06:38.162Z,217.06
2023-01-09T00:07:37.965Z,217.06
2023-01-09T00:08:37.989Z,217.35
2023-01-09T00:09:37.879Z,217.49
2023-01-09T00:10:37.870Z,216.49
2023-01-09T00:11:38.171Z,218.21
2023-01-09T00:12:37.890Z,218.07
2023-01-09T00:13:38.015Z,217.49
2023-01-09T00:14:38.049Z,218.65
2023-01-09T00:15:37.863Z,219.09
2023-01-09T00:16:38.283Z,219.23
2023-01-09T00:17:38.743Z,219.09
2023-01-09T00:18:37.847Z,219.97
2023-01-09T00:19:37.769Z,220.12
2023-01-09T00:20:38.331Z,221.01
2023-01-09T00:21:38.448Z,220.71
2023-01-09T00:22:37.922Z,220.41
2023-01-09T00:23:38.250Z,220.26
2023-01-09T00:24:37.815Z,219.53
2023-01-09T00:25:38.102Z,221.30
2023-01-09T00:26:38.268Z,222.35
2023-01-09T00:27:37.999Z,222.50
2023-01-09T00:28:38.138Z,221.75
2023-01-09T00:29:38.813Z,221.75
2023-01-09T00:30:37.705Z,223.26
2023-01-09T00:31:38.325Z,222.65
2023-01-09T00:32:37.886Z,221.01
2023-01-09T00:33:38.564Z,221.45
2023-01-09T00:34:38.025Z,221.45
2023-01-09T00:35:38.482Z,222.05
2023-01-09T00:36:37.663Z,222.81
2023-01-09T00:37:38.764Z,222.35
2023-01-09T00:38:39.164Z,220.56
2023-01-09T00:39:37.803Z,221.60
2023-01-09T00:40:44.898Z,220.86
2023-01-09T00:41:37.388Z,221.75
2023-01-09T00:42:37.374Z,221.15
2023-01-09T00:43:37.359Z,222.35
2023-01-09T00:44:37.356Z,221.75
2023-01-09T00:45:37.355Z,220.86
2023-01-09T00:46:37.330Z,222.05
2023-01-09T00:47:37.313Z,222.50
2023-01-09T00:48:37.302Z,222.65
2023-01-09T00:49:37.295Z,222.96
2023-01-09T00:50:37.285Z,222.50
2023-01-09T00:51:37.270Z,223.11
2023-01-09T00:52:37.259Z,223.72
2023-01-09T00:53:37.261Z,225.72
2023-01-09T00:54:37.247Z,224.33
2023-01-09T00:55:37.236Z,224.02
2023-01-09T00:56:37.231Z,224.64
2023-01-09T00:57:37.205Z,225.41
2023-01-09T00:58:37.212Z,226.65
2023-01-09T00:59:37.185Z,227.60
2023-01-09T01:00:37.188Z,226.03
2023-01-09T01:01:37.269Z,226.50
2023-01-09T01:02:37.184Z,228.55
2023-01-09T01:03:37.163Z,228.55
2023-01-09T01:04:37.141Z,228.71
2023-01-09T01:05:37.121Z,228.23
2023-01-09T01:06:37.111Z,228.23
2023-01-09T01:07:37.110Z,229.83
2023-01-09T01:08:37.104Z,230.48
2023-01-09T01:09:37.089Z,231.78
2023-01-09T01:10:37.072Z,230.80
2023-01-09T01:11:37.073Z,232.10
2023-01-09T01:12:37.052Z,233.43
2023-01-09T01:13:37.053Z,232.60
2023-01-09T01:14:37.023Z,234.76
2023-01-09T01:15:37.018Z,234.09
2023-01-09T01:16:37.073Z,234.76
2023-01-09T01:17:37.000Z,234.76
2023-01-09T01:18:37.003Z,235.10
2023-01-09T01:19:36.975Z,234.43
2023-01-09T01:20:36.961Z,235.60
2023-01-09T01:21:36.953Z,236.45
2023-01-09T01:22:36.946Z,237.14
2023-01-09T01:23:36.949Z,237.31
2023-01-09T01:24:36.923Z,238.34
2023-01-09T01:25:36.916Z,237.48
2023-01-09T01:26:36.911Z,236.79
2023-01-09T01:27:36.911Z,238.17
2023-01-09T01:28:36.911Z,237.48
2023-01-09T01:29:36.873Z,238.52
2023-01-09T01:30:36.896Z,237.65
2023-01-09T01:31:36.847Z,236.62
2023-01-09T01:32:36.836Z,236.97
2023-01-09T01:33:36.823Z,238.17
2023-01-09T01:34:36.830Z,237.48
2023-01-09T01:35:36.807Z,240.09
2023-01-09T01:36:36.804Z,238.86
2023-01-09T01:37:36.781Z,238.69
2023-01-09T01:38:36.768Z,239.21
2023-01-09T01:39:36.781Z,239.21
2023-01-09T01:40:36.746Z,240.09
2023-01-09T01:41:36.742Z,239.39
2023-01-09T01:42:36.722Z,239.74
2023-01-09T01:43:36.726Z,239.21
2023-01-09T01:44:36.724Z,239.56
2023-01-09T01:45:36.720Z,240.09
2023-01-09T01:46:36.691Z,241.32
2023-01-09T01:47:36.678Z,241.50
2023-01-09T01:48:36.680Z,242.75
2023-01-09T01:49:36.658Z,243.11
2023-01-09T01:50:36.640Z,243.83
2023-01-09T01:51:36.644Z,243.65
2023-01-09T01:52:36.620Z,245.11
2023-01-09T01:53:36.620Z,245.84
2023-01-09T01:54:36.599Z,245.11
2023-01-09T01:55:36.587Z,246.40
2023-01-09T01:56:36.607Z,246.21
2023-01-09T01:57:36.564Z,246.58
2023-01-09T01:58:36.563Z,249.58
2023-01-09T01:59:36.545Z,247.51
2023-01-09T02:00:36.532Z,248.64
2023-01-09T02:01:46.988Z,249.58
2023-01-09T02:02:37.158Z,249.20
2023-01-09T02:03:37.152Z,248.64
2023-01-09T02:04:36.638Z,247.89
2023-01-09T02:05:36.595Z,248.45
2023-01-09T02:06:36.631Z,249.01
2023-01-09T02:07:36.581Z,246.03
2023-01-09T02:08:36.584Z,246.58
2023-01-09T02:09:36.551Z,245.66
2023-01-09T02:10:36.468Z,246.21
2023-01-09T02:11:36.570Z,244.56
2023-01-09T02:12:36.619Z,242.93
2023-01-09T02:13:36.454Z,241.15
2023-01-09T02:14:44.154Z,239.74
2023-01-09T02:15:36.371Z,238.17
2023-01-09T02:16:36.363Z,237.14
2023-01-09T02:17:36.347Z,235.10
2023-01-09T02:18:36.332Z,232.76
2023-01-09T02:19:36.339Z,231.29
2023-01-09T02:20:36.321Z,229.83
2023-01-09T02:21:36.314Z,228.71
2023-01-09T02:22:36.292Z,228.87
2023-01-09T02:23:36.284Z,226.34
2023-01-09T02:24:36.288Z,223.41
2023-01-09T02:25:36.273Z,223.87
2023-01-09T02:26:36.251Z,222.20
2023-01-09T02:27:36.241Z,221.45
2023-01-09T02:28:36.231Z,220.12
2023-01-09T02:29:36.225Z,220.26
2023-01-09T02:30:36.239Z,218.79
2023-01-09T02:31:36.284Z,218.07
2023-01-09T02:32:36.189Z,217.06
2023-01-09T02:33:36.204Z,215.91
2023-01-09T02:34:36.165Z,214.36
2023-01-09T02:35:36.183Z,212.97
2023-01-09T02:36:36.193Z,212.01
2023-01-09T02:37:36.133Z,210.92
2023-01-09T02:38:36.143Z,207.98
2023-01-09T02:39:36.123Z,207.71
2023-01-09T02:40:36.110Z,206.80
2023-01-09T02:41:36.087Z,207.58
2023-01-09T02:42:36.127Z,205.50
2023-01-09T02:43:36.064Z,204.35
2023-01-09T02:44:36.066Z,204.73
2023-01-09T02:45:36.099Z,201.46
2023-01-09T02:46:36.034Z,200.73
2023-01-09T02:47:36.047Z,200.48
2023-01-09T02:48:36.017Z,198.06
2023-01-09T02:49:36.002Z,197.82
2023-01-09T02:50:35.997Z,197.46
2023-01-09T02:51:35.984Z,194.88
2023-01-09T02:52:35.989Z,194.65
2023-01-09T02:53:35.961Z,193.85
2023-01-09T02:54:35.946Z,192.48
2023-01-09T02:55:35.944Z,191.25
2023-01-09T02:56:35.934Z,190.25
2023-01-09T02:57:35.936Z,189.15
2023-01-09T02:58:35.910Z,187.96
2023-01-09T02:59:35.910Z,187.64
2023-01-09T03:00:35.885Z,185.62
2023-01-09T03:01:35.946Z,186.24
2023-01-09T03:02:35.922Z,184.79
2023-01-09T03:03:35.850Z,185.01
2023-01-09T03:04:35.841Z,185.83
2023-01-09T03:05:35.831Z,184.19
2023-01-09T03:06:35.818Z,183.58
2023-01-09T03:07:35.821Z,182.98
2023-01-09T03:08:35.823Z,183.18
2023-01-09T03:09:35.795Z,181.19
2023-01-09T03:10:35.787Z,181.38
2023-01-09T03:11:35.765Z,179.43
2023-01-09T03:12:35.776Z,178.67
2023-01-09T03:13:35.762Z,176.96
2023-01-09T03:14:35.735Z,176.96
2023-01-09T03:15:35.730Z,176.03
2023-01-09T03:16:35.755Z,175.84
2023-01-09T03:17:35.727Z,174.19
2023-01-09T03:18:35.694Z,174.55
2023-01-09T03:19:35.684Z,172.93
2023-01-09T03:20:35.667Z,172.39
2023-01-09T03:21:35.655Z,173.29
2023-01-09T03:22:35.693Z,173.11
2023-01-09T03:23:35.643Z,173.11
2023-01-09T03:24:35.658Z,171.33
2023-01-09T03:25:35.639Z,172.21
2023-01-09T03:26:35.610Z,172.21
2023-01-09T03:27:35.603Z,171.68
2023-01-09T03:28:35.608Z,171.51
2023-01-09T03:29:35.584Z,171.68
2023-01-09T03:30:35.561Z,171.33
2023-01-09T03:31:35.626Z,170.28
2023-01-09T03:32:35.547Z,169.93
2023-01-09T03:33:35.529Z,170.63
2023-01-09T03:34:35.537Z,169.59
2023-01-09T03:35:35.520Z,169.42
2023-01-09T03:36:35.535Z,169.42
2023-01-09T03:37:35.529Z,168.56
2023-01-09T03:38:35.491Z,169.07
2023-01-09T03:39:35.483Z,168.22
2023-01-09T03:40:35.481Z,167.71
2023-01-09T03:41:35.452Z,168.73
2023-01-09T03:42:35.435Z,168.05
2023-01-09T03:43:35.427Z,168.22
2023-01-09T03:44:35.438Z,168.05
2023-01-09T03:45:35.413Z,168.22
2023-01-09T03:46:35.409Z,167.71
2023-01-09T03:47:35.387Z,169.59
2023-01-09T03:48:35.387Z,168.39
2023-01-09T03:49:35.374Z,169.76
2023-01-09T03:50:35.375Z,168.73
2023-01-09T03:51:35.344Z,168.22
2023-01-09T03:52:35.327Z,168.39
2023-01-09T03:53:35.331Z,168.56
2023-01-09T03:54:35.345Z,166.88
2023-01-09T03:55:35.312Z,168.90
2023-01-09T03:56:35.291Z,168.22
2023-01-09T03:57:35.284Z,169.42
2023-01-09T03:58:35.295Z,168.73
2023-01-09T03:59:35.267Z,169.24
2023-01-09T04:00:35.245Z,168.73
2023-01-09T04:01:35.338Z,168.56
2023-01-09T04:02:35.235Z,168.05
2023-01-09T04:03:35.269Z,168.05
2023-01-09T04:04:35.251Z,168.05
2023-01-09T04:05:35.197Z,168.22
2023-01-09T04:06:35.181Z,167.88
2023-01-09T04:07:35.169Z,168.73
2023-01-09T04:08:35.165Z,168.90
2023-01-09T04:09:35.168Z,169.59
2023-01-09T04:10:35.141Z,169.07
2023-01-09T04:11:35.126Z,169.59
2023-01-09T04:12:35.113Z,169.24
2023-01-09T04:13:35.113Z,168.56
2023-01-09T04:14:35.106Z,167.88
2023-01-09T04:15:35.083Z,168.22
2023-01-09T04:16:35.126Z,167.04
2023-01-09T04:17:35.067Z,166.04
2023-01-09T04:18:35.056Z,165.39
2023-01-09T04:19:35.051Z,165.22
2023-01-09T04:20:35.026Z,165.06
2023-01-09T04:21:35.016Z,166.04
2023-01-09T04:22:35.018Z,165.06
2023-01-09T04:23:34.991Z,165.06
2023-01-09T04:24:35.003Z,164.73
2023-01-09T04:25:34.992Z,164.25
2023-01-09T04:26:34.976Z,163.12
2023-01-09T04:27:34.955Z,162.80
2023-01-09T04:28:34.944Z,161.70
2023-01-09T04:29:34.961Z,161.23
2023-01-09T04:30:34.930Z,160.46
2023-01-09T04:31:34.949Z,160.30
2023-01-09T04:32:34.902Z,158.48
2023-01-09T04:33:34.898Z,158.78
2023-01-09T04:34:34.901Z,156.40
2023-01-09T04:35:34.893Z,155.09
2023-01-09T04:36:34.865Z,154.09
2023-01-09T04:37:34.841Z,152.96
2023-01-09T04:38:34.849Z,151.43
2023-01-09T04:39:34.825Z,150.20
2023-01-09T04:40:34.825Z,149.53
2023-01-09T04:41:34.823Z,147.94
2023-01-09T04:42:34.789Z,147.16
2023-01-09T04:43:34.785Z,146.51
2023-01-09T04:44:34.789Z,145.74
2023-01-09T04:45:34.910Z,144.86
2023-01-09T04:46:34.753Z,145.49
2023-01-09T04:47:34.759Z,145.11
2023-01-09T04:48:34.727Z,145.87
2023-01-09T04:49:34.753Z,146.12
2023-01-09T04:50:34.701Z,145.87
2023-01-09T04:51:34.710Z,145.49
2023-01-09T04:52:34.692Z,146.00
2023-01-09T04:53:34.694Z,146.38
2023-01-09T04:54:34.657Z,145.74
2023-01-09T04:55:34.668Z,146.12
2023-01-09T04:56:34.659Z,146.90
2023-01-09T04:57:34.634Z,147.42
2023-01-09T04:58:34.615Z,147.16
2023-01-09T04:59:34.660Z,146.00
2023-01-09T05:00:34.605Z,146.25
2023-01-09T05:01:34.678Z,146.12
2023-01-09T05:02:34.586Z,144.73
2023-01-09T05:03:34.572Z,144.23
2023-01-09T05:04:34.594Z,142.87
2023-01-09T05:05:34.570Z,142.51
2023-01-09T05:06:34.546Z,141.42
2023-01-09T05:07:34.529Z,140.94
2023-01-09T05:08:34.517Z,140.59
2023-01-09T05:09:34.556Z,139.76
2023-01-09T05:10:34.515Z,139.53
2023-01-09T05:11:34.491Z,139.88
2023-01-09T05:12:34.491Z,140.47
2023-01-09T05:13:34.473Z,141.30
2023-01-09T05:14:34.443Z,140.70
2023-01-09T05:15:34.455Z,142.26
2023-01-09T05:16:34.543Z,141.78
2023-01-09T05:17:34.464Z,142.02
2023-01-09T05:18:34.407Z,143.24
2023-01-09T05:19:34.410Z,142.87
2023-01-09T05:20:34.408Z,143.24
2023-01-09T05:21:34.371Z,143.98
2023-01-09T05:22:34.404Z,145.11
2023-01-09T05:23:34.354Z,146.25
2023-01-09T05:24:34.346Z,147.03
2023-01-09T05:25:34.353Z,147.94
2023-01-09T05:26:34.327Z,148.07
2023-01-09T05:27:34.328Z,147.94
2023-01-09T05:28:34.347Z,149.66
2023-01-09T05:29:34.294Z,150.74
2023-01-09T05:30:34.283Z,151.98
2023-01-09T05:31:34.340Z,151.84
2023-01-09T05:32:34.251Z,153.52
2023-01-09T05:33:34.258Z,153.94
2023-01-09T05:34:34.243Z,155.52
2023-01-09T05:35:34.239Z,156.84
2023-01-09T05:36:34.235Z,157.73
2023-01-09T05:37:34.196Z,158.48
2023-01-09T05:38:34.207Z,158.78
2023-01-09T05:39:34.182Z,159.99
2023-01-09T05:40:40.023Z,160.46
2023-01-09T05:41:35.171Z,161.23
2023-01-09T05:42:34.165Z,161.70
2023-01-09T05:43:34.150Z,163.92
2023-01-09T05:44:34.193Z,163.28
2023-01-09T05:45:34.173Z,165.71
2023-01-09T05:46:34.130Z,166.38
2023-01-09T05:47:34.096Z,167.54
2023-01-09T05:48:34.080Z,167.71
2023-01-09T05:49:34.083Z,167.21
2023-01-09T05:50:34.084Z,169.24
2023-01-09T05:51:34.118Z,169.59
2023-01-09T05:52:34.084Z,170.28
2023-01-09T05:53:34.056Z,170.11
2023-01-09T05:54:34.118Z,171.86
2023-01-09T05:55:34.068Z,172.21
2023-01-09T05:56:34.092Z,172.93
2023-01-09T05:57:34.043Z,172.21
2023-01-09T05:58:33.988Z,172.57
2023-01-09T05:59:33.957Z,172.39
2023-01-09T06:00:34.003Z,173.11
2023-01-09T06:01:34.072Z,172.75
2023-01-09T06:02:34.164Z,173.11
2023-01-09T06:03:33.926Z,174.74
2023-01-09T06:04:33.947Z,174.37
2023-01-09T06:05:33.944Z,176.77
2023-01-09T06:06:33.935Z,177.15
2023-01-09T06:07:33.899Z,177.71
2023-01-09T06:08:33.864Z,177.34
2023-01-09T06:09:34.008Z,179.05
2023-01-09T06:10:33.986Z,179.43
2023-01-09T06:11:33.888Z,180.02
2023-01-09T06:12:33.823Z,180.40
2023-01-09T06:13:33.806Z,181.58
2023-01-09T06:14:33.836Z,182.18
2023-01-09T06:15:33.853Z,181.78
2023-01-09T06:16:33.794Z,181.78
2023-01-09T06:17:33.771Z,182.38
2023-01-09T06:18:33.754Z,182.18
2023-01-09T06:19:33.742Z,184.19
2023-01-09T06:20:33.961Z,182.38
2023-01-09T06:21:34.000Z,183.99
2023-01-09T06:22:33.727Z,183.18
2023-01-09T06:23:33.705Z,183.78
2023-01-09T06:24:33.704Z,183.38
2023-01-09T06:25:33.684Z,182.38
2023-01-09T06:26:33.705Z,182.38
2023-01-09T06:27:33.661Z,181.19
2023-01-09T06:28:33.643Z,180.99
2023-01-09T06:29:33.656Z,180.80
2023-01-09T06:30:33.655Z,178.09
2023-01-09T06:31:33.706Z,178.86
2023-01-09T06:32:33.621Z,177.34
2023-01-09T06:33:33.606Z,178.86
2023-01-09T06:34:33.608Z,177.71
2023-01-09T06:35:33.580Z,177.71
2023-01-09T06:36:33.582Z,180.99
2023-01-09T06:37:33.565Z,179.43
2023-01-09T06:38:33.556Z,178.29
2023-01-09T06:39:33.561Z,179.05
2023-01-09T06:40:33.531Z,178.09
2023-01-09T06:41:33.532Z,180.21
2023-01-09T06:42:33.515Z,180.02
2023-01-09T06:43:33.494Z,180.80
2023-01-09T06:44:33.482Z,181.58
2023-01-09T06:45:33.484Z,180.40
2023-01-09T06:46:33.511Z,182.38
2023-01-09T06:47:33.463Z,182.58
2023-01-09T06:48:33.468Z,182.18
2023-01-09T06:49:33.439Z,183.18
2023-01-09T06:50:33.423Z,182.18
2023-01-09T06:51:33.402Z,182.78
2023-01-09T06:52:33.412Z,182.78
2023-01-09T06:53:33.403Z,183.78
2023-01-09T06:54:33.371Z,182.78
2023-01-09T06:55:33.380Z,183.38
2023-01-09T06:56:33.364Z,184.80
2023-01-09T06:57:33.338Z,183.18
2023-01-09T06:58:33.349Z,184.39
2023-01-09T06:59:33.321Z,184.80
2023-01-09T07:00:33.299Z,183.38
2023-01-09T07:01:33.409Z,183.99
2023-01-09T07:02:33.302Z,182.38
2023-01-09T07:03:33.913Z,183.58
2023-01-09T07:04:33.268Z,183.58
2023-01-09T07:05:33.263Z,183.38
2023-01-09T07:06:33.262Z,184.80
2023-01-09T07:07:33.245Z,185.01
2023-01-09T07:08:33.214Z,184.60
2023-01-09T07:09:33.208Z,181.19
2023-01-09T07:10:33.232Z,180.99
2023-01-09T07:11:33.210Z,180.99
2023-01-09T07:12:33.190Z,181.78
2023-01-09T07:13:33.167Z,181.58
2023-01-09T07:14:33.159Z,181.98
2023-01-09T07:15:33.158Z,181.98
2023-01-09T07:16:33.161Z,182.18
2023-01-09T07:17:33.146Z,182.58
2023-01-09T07:18:33.120Z,185.62
2023-01-09T07:19:33.099Z,186.66
2023-01-09T07:20:33.080Z,186.04
2023-01-09T07:21:33.143Z,186.04
2023-01-09T07:22:33.089Z,186.04
2023-01-09T07:23:33.078Z,185.94
2023-01-09T07:24:33.047Z,185.01
2023-01-09T07:25:33.039Z,186.68
2023-01-09T07:26:33.027Z,187.00
2023-01-09T07:27:33.020Z,185.41
2023-01-09T07:28:33.014Z,186.68
2023-01-09T07:29:32.988Z,187.53
2023-01-09T07:30:32.983Z,185.62
2023-01-09T07:31:33.015Z,186.68
2023-01-09T07:32:32.991Z,187.32
2023-01-09T07:33:32.968Z,188.83
2023-01-09T07:34:32.940Z,188.94
2023-01-09T07:35:32.924Z,189.59
2023-01-09T07:36:32.916Z,191.14
2023-01-09T07:37:32.899Z,191.25
2023-01-09T07:38:32.912Z,194.54
2023-01-09T07:39:32.904Z,192.82
2023-01-09T07:40:32.900Z,191.02
2023-01-09T07:41:32.863Z,189.26
2023-01-09T07:42:32.870Z,190.25
2023-01-09T07:43:32.872Z,190.58
2023-01-09T07:44:32.839Z,190.58
2023-01-09T07:45:32.834Z,193.85
2023-01-09T07:46:32.843Z,190.80
2023-01-09T07:47:32.809Z,191.02
2023-01-09T07:48:32.819Z,192.71
2023-01-09T07:49:32.789Z,193.05
2023-01-09T07:50:32.775Z,193.73
2023-01-09T07:51:32.767Z,197.94
2023-01-09T07:52:32.749Z,199.14
2023-01-09T07:53:32.768Z,196.99
2023-01-09T07:54:32.735Z,197.70
2023-01-09T07:55:32.743Z,198.42
2023-01-09T07:56:32.718Z,200.48
2023-01-09T07:57:32.722Z,204.10
2023-01-09T07:58:32.710Z,203.84
2023-01-09T07:59:32.677Z,202.33
2023-01-09T08:00:33.284Z,202.71
2023-01-09T08:01:32.777Z,203.09
2023-01-09T08:02:32.697Z,203.34
2023-01-09T08:03:32.666Z,203.46
2023-01-09T08:04:32.657Z,203.84
2023-01-09T08:05:32.633Z,203.21
2023-01-09T08:06:32.619Z,202.09
2023-01-09T08:07:32.608Z,202.09
2023-01-09T08:08:32.589Z,202.33
2023-01-09T08:09:32.579Z,201.59
2023-01-09T08:10:32.566Z,202.33
2023-01-09T08:11:32.538Z,202.46
2023-01-09T08:12:32.566Z,202.33
2023-01-09T08:13:32.542Z,201.96
2023-01-09T08:14:32.530Z,201.84
2023-01-09T08:15:32.526Z,201.84
2023-01-09T08:16:32.480Z,203.09
2023-01-09T08:17:32.487Z,202.83
2023-01-09T08:18:32.480Z,206.54
2023-01-09T08:19:32.450Z,203.84
2023-01-09T08:20:32.458Z,204.99
2023-01-09T08:21:32.453Z,205.12
2023-01-09T08:22:32.436Z,205.63
2023-01-09T08:23:32.433Z,204.48
2023-01-09T08:24:32.397Z,205.24
2023-01-09T08:25:32.396Z,209.57
2023-01-09T08:26:32.425Z,205.50
2023-01-09T08:27:32.426Z,205.63
2023-01-09T08:28:32.395Z,205.37
2023-01-09T08:29:32.382Z,205.89
2023-01-09T08:30:32.350Z,209.71
2023-01-09T08:31:32.460Z,208.64
2023-01-09T08:32:32.313Z,209.84
2023-01-09T08:33:32.333Z,211.33
2023-01-09T08:34:32.374Z,211.87
2023-01-09T08:35:32.285Z,216.06
2023-01-09T08:36:32.277Z,214.36
2023-01-09T08:37:32.257Z,216.20
2023-01-09T08:38:32.258Z,218.07
2023-01-09T08:39:32.266Z,219.67
2023-01-09T08:40:32.230Z,221.15
2023-01-09T08:41:32.218Z,221.60
2023-01-09T08:42:32.221Z,226.03
2023-01-09T08:43:32.207Z,229.19
2023-01-09T08:44:32.206Z,231.61
2023-01-09T08:45:32.187Z,235.77
2023-01-09T08:46:34.661Z,234.43
2023-01-09T08:47:32.155Z,237.65
2023-01-09T08:48:32.144Z,237.65
2023-01-09T08:49:32.164Z,242.93
2023-01-09T08:50:32.145Z,245.11
2023-01-09T08:51:32.106Z,246.77
2023-01-09T08:52:32.105Z,244.56
2023-01-09T08:53:32.096Z,250.35
2023-01-09T08:54:32.095Z,247.51
2023-01-09T08:55:32.074Z,248.07
2023-01-09T08:56:32.062Z,252.46
2023-01-09T08:57:32.040Z,253.83
2023-01-09T08:58:32.044Z,254.03
2023-01-09T08:59:32.023Z,259.25
2023-01-09T09:00:32.068Z,262.99
2023-01-09T09:01:32.060Z,264.90
2023-01-09T09:02:32.024Z,266.84
2023-01-09T09:03:31.995Z,268.58
2023-01-09T09:04:31.985Z,267.93
2023-01-09T09:05:31.975Z,272.60
2023-01-09T09:06:31.945Z,271.92
2023-01-09T09:07:31.957Z,277.21
2023-01-09T09:08:31.927Z,274.20
2023-01-09T09:09:31.932Z,277.67
2023-01-09T09:10:31.905Z,275.58
2023-01-09T09:11:31.900Z,276.74
2023-01-09T09:12:31.911Z,281.49
2023-01-09T09:13:31.892Z,280.76
2023-01-09T09:14:31.895Z,285.90
2023-01-09T09:15:31.880Z,283.43
2023-01-09T09:16:31.853Z,290.97
2023-01-09T09:17:31.854Z,290.46
2023-01-09T09:18:31.834Z,288.16
2023-01-09T09:19:31.861Z,296.76
2023-01-09T09:20:31.808Z,295.43
2023-01-09T09:21:31.795Z,294.89
2023-01-09T09:22:31.783Z,293.58
2023-01-09T09:23:31.783Z,292.79
2023-01-09T09:24:31.759Z,296.49
2023-01-09T09:25:31.772Z,298.11
2023-01-09T09:26:31.774Z,296.76
2023-01-09T09:27:31.733Z,302.23
2023-01-09T09:28:31.738Z,296.49
2023-01-09T09:29:31.711Z,302.23
2023-01-09T09:30:31.715Z,305.04
2023-01-09T09:31:31.834Z,302.23
2023-01-09T09:32:31.671Z,308.77
2023-01-09T09:33:31.685Z,309.94
2023-01-09T09:34:31.664Z,311.41
2023-01-09T09:35:31.675Z,312.00
2023-01-09T09:36:31.644Z,314.69
2023-01-09T09:37:31.627Z,323.38
2023-01-09T09:38:31.628Z,324.98
2023-01-09T09:39:31.601Z,326.60
2023-01-09T09:40:31.612Z,327.25
2023-01-09T09:41:31.580Z,326.92
2023-01-09T09:42:31.583Z,327.58
2023-01-09T09:43:31.587Z,327.25
2023-01-09T09:44:31.559Z,331.21
2023-01-09T09:45:31.571Z,331.88
2023-01-09T09:46:31.623Z,333.23
2023-01-09T09:47:31.532Z,333.91
2023-01-09T09:48:31.557Z,332.22
2023-01-09T09:49:31.490Z,331.55
2023-01-09T09:50:31.495Z,331.88
2023-01-09T09:51:31.466Z,331.55
2023-01-09T09:52:31.474Z,334.93
2023-01-09T09:53:31.452Z,336.30
2023-01-09T09:54:31.462Z,339.79
2023-01-09T09:55:31.462Z,342.62
2023-01-09T09:56:31.435Z,347.34
2023-01-09T09:57:31.412Z,350.31
2023-01-09T09:58:31.410Z,354.09
2023-01-09T09:59:31.421Z,351.06
2023-01-09T10:00:31.411Z,352.19
2023-01-09T10:01:31.378Z,347.71
2023-01-09T10:02:31.367Z,352.95
2023-01-09T10:03:34.271Z,357.56
2023-01-09T10:04:31.331Z,352.57
2023-01-09T10:05:31.347Z,359.13
2023-01-09T10:06:31.337Z,359.13
2023-01-09T10:07:31.301Z,359.52
2023-01-09T10:08:31.297Z,360.70
2023-01-09T10:09:31.275Z,356.01
2023-01-09T10:10:31.275Z,359.52
2023-01-09T10:11:31.299Z,359.13
2023-01-09T10:12:31.244Z,356.78
2023-01-09T10:13:32.630Z,359.52
2023-01-09T10:14:31.237Z,363.10
2023-01-09T10:15:31.216Z,360.31
2023-01-09T10:16:31.215Z,360.31
2023-01-09T10:17:31.191Z,357.95
2023-01-09T10:18:31.186Z,362.30
2023-01-09T10:19:31.171Z,358.34
2023-01-09T10:20:31.168Z,361.50
2023-01-09T10:21:31.183Z,359.91
2023-01-09T10:22:31.148Z,363.10
2023-01-09T10:23:31.126Z,361.10
2023-01-09T10:24:31.130Z,361.90
2023-01-09T10:25:31.133Z,361.50
2023-01-09T10:26:31.138Z,359.52
2023-01-09T10:27:31.102Z,362.30
2023-01-09T10:28:31.076Z,357.56
2023-01-09T10:29:31.172Z,361.10
2023-01-09T10:30:31.062Z,357.95
2023-01-09T10:31:31.095Z,361.90
2023-01-09T10:32:31.033Z,365.93
2023-01-09T10:33:31.027Z,361.50
2023-01-09T10:34:31.014Z,367.57
2023-01-09T10:35:42.802Z,367.16
2023-01-09T10:36:32.096Z,371.74
2023-01-09T10:37:30.991Z,370.90
2023-01-09T10:38:30.965Z,375.57
2023-01-09T10:39:30.962Z,377.73
2023-01-09T10:40:30.939Z,376.00
2023-01-09T10:41:30.945Z,373.43
2023-01-09T10:42:30.967Z,379.96
2023-01-09T10:43:30.921Z,383.68
2023-01-09T10:44:30.897Z,384.12
2023-01-09T10:45:30.916Z,385.45
2023-01-09T10:46:30.968Z,386.57
2023-01-09T10:47:30.924Z,387.69
2023-01-09T10:48:30.861Z,389.05
2023-01-09T10:49:30.855Z,388.14
2023-01-09T10:50:30.837Z,391.56
2023-01-09T10:51:30.831Z,390.42
2023-01-09T10:52:30.840Z,391.56
2023-01-09T10:53:30.823Z,390.42
2023-01-09T10:54:30.791Z,395.51
2023-01-09T10:55:30.787Z,397.40
2023-01-09T10:56:30.780Z,397.63
2023-01-09T10:57:30.780Z,399.30
2023-01-09T10:58:30.758Z,399.78
2023-01-09T10:59:30.736Z,400.74
2023-01-09T11:00:30.736Z,401.22
2023-01-09T11:01:30.730Z,404.88
2023-01-09T11:02:30.757Z,403.90
2023-01-09T11:03:30.875Z,402.92
2023-01-09T11:04:30.712Z,407.60
2023-01-09T11:05:32.641Z,406.36
2023-01-09T11:06:30.656Z,408.35
2023-01-09T11:07:30.724Z,408.10
2023-01-09T11:08:30.647Z,408.35
2023-01-09T11:09:30.627Z,403.41
2023-01-09T11:10:30.614Z,408.85
2023-01-09T11:11:30.609Z,407.35
2023-01-09T11:12:30.616Z,412.90
2023-01-09T11:13:30.592Z,414.70
2023-01-09T11:14:30.566Z,413.15
2023-01-09T11:15:30.562Z,413.41
2023-01-09T11:16:30.594Z,411.37
2023-01-09T11:17:30.555Z,413.92
2023-01-09T11:18:30.526Z,418.34
2023-01-09T11:19:30.529Z,417.03
2023-01-09T11:20:30.525Z,414.70
2023-01-09T11:21:30.503Z,417.55
2023-01-09T11:22:30.507Z,420.98
2023-01-09T11:23:30.476Z,415.73
2023-01-09T11:24:30.455Z,417.55
2023-01-09T11:25:30.461Z,419.65
2023-01-09T11:26:30.437Z,422.05
2023-01-09T11:27:30.440Z,421.25
2023-01-09T11:28:30.445Z,418.86
2023-01-09T11:29:30.414Z,422.85
2023-01-09T11:30:30.406Z,422.31
2023-01-09T11:31:30.482Z,422.58
2023-01-09T11:32:30.395Z,427.73
2023-01-09T11:33:30.364Z,426.09
2023-01-09T11:34:30.357Z,428.55
2023-01-09T11:35:32.987Z,432.45
2023-01-09T11:36:30.462Z,433.85
2023-01-09T11:37:30.342Z,438.71
2023-01-09T11:38:30.327Z,435.27
2023-01-09T11:39:30.326Z,444.55
2023-01-09T11:40:30.293Z,446.04
2023-01-09T11:41:30.283Z,444.26
2023-01-09T11:42:30.285Z,441.61
2023-01-09T11:43:30.260Z,446.04
2023-01-09T11:44:30.277Z,446.34
2023-01-09T11:45:30.255Z,447.84
2023-01-09T11:46:30.245Z,445.15
2023-01-09T11:47:30.203Z,447.54
2023-01-09T11:48:30.217Z,449.05
2023-01-09T11:49:30.189Z,447.84
2023-01-09T11:50:30.227Z,448.44
2023-01-09T11:51:30.181Z,450.26
2023-01-09T11:52:30.198Z,454.55
2023-01-09T11:53:30.183Z,451.78
2023-01-09T11:54:30.141Z,452.09
2023-01-09T11:55:41.774Z,453.94
2023-01-09T11:56:31.148Z,454.86
2023-01-09T11:57:30.145Z,453.94
2023-01-09T11:58:30.835Z,456.11
2023-01-09T11:59:30.096Z,459.57
2023-01-09T12:00:30.073Z,459.57
2023-01-09T12:01:30.069Z,463.40
2023-01-09T12:02:30.053Z,463.40
2023-01-09T12:03:30.168Z,466.32
2023-01-09T12:04:30.060Z,466.64
2023-01-09T12:05:30.072Z,464.69
2023-01-09T12:06:30.017Z,464.37
2023-01-09T12:07:30.025Z,464.69
2023-01-09T12:08:30.050Z,466.64
2023-01-09T12:09:30.021Z,468.94
2023-01-09T12:10:29.992Z,463.72
2023-01-09T12:11:29.986Z,462.76
2023-01-09T12:12:30.002Z,453.94
2023-01-09T12:13:29.980Z,441.61
2023-01-09T12:14:29.976Z,434.42
2023-01-09T12:15:29.926Z,431.33
2023-01-09T12:16:29.948Z,426.91
2023-01-09T12:17:29.924Z,427.46
2023-01-09T12:18:29.917Z,426.64
2023-01-09T12:19:29.892Z,426.64
2023-01-09T12:20:30.028Z,425.82
2023-01-09T12:21:29.851Z,425.82
2023-01-09T12:22:29.877Z,420.45
2023-01-09T12:23:29.861Z,417.82
2023-01-09T12:24:29.812Z,417.55
2023-01-09T12:25:29.808Z,412.39
2023-01-09T12:26:29.801Z,414.95
2023-01-09T12:27:29.801Z,411.62
2023-01-09T12:28:29.809Z,408.85